Center Banner
 

Sheshequin Half Marathon

Overall Finish List

October 06, 2018


Results by Integrity Racing Integrity Racing

Sheshequin Half Path

Place Name City Bib No Age Gender Age Group Total Time Pace
1 WILL MULLEN 454 27 M 1 Top Fin 1:30:29.55 6:54/M
2 ROBERT MOORE LE RAYSVILLE PA 434 55 M 2 Top Fin 1:38:08.15 7:29/M
3 DANIEL TEABO AUBURN NY 442 21 M 3 Top Fin 1:43:58.80 7:56/M
4 JENNIFER MCGEE SAYRE PA 432 35 F 1 Top Fin 1:45:40.17 8:04/M
5 MICHAEL DAVIS 458 30 M 1 1-99 1:50:01.60 8:24/M
6 LISA BUTLER 453 57 F 2 Top Fin 1:50:24.43 8:26/M
7 THOMAS SEDORE APALACHIN NY 439 54 M 2 1-99 2:00:35.86 9:12/M
8 ROBERT VANDERPOOL TOWANDA PA 445 47 M 3 1-99 2:01:03.21 9:14/M
9 ANNE LATHROP MONTROSE PA 424 49 F 3 Top Fin 2:01:49.70 9:18/M
10 AMANDA RUBERT TOWANDA PA 436 52 F 1 1-99 2:03:22.21 9:25/M
11 BRIAN POTTER 449 55 M 4 1-99 2:06:40.74 9:40/M
12 DOUG LANTZ MONROETON PA 423 48 M 5 1-99 2:10:04.21 9:56/M
13 JOHN JOHNSON 455 46 M 6 1-99 2:10:04.57 9:56/M
14 ADAM BROWN 457 54 M 7 1-99 2:12:20.21 10:06/M
15 CADENCE KARCHER BENTON PA 421 14 F 2 1-99 2:13:34.87 10:12/M
16 JEREMY S HESS BENTON PA 419 35 M 8 1-99 2:13:36.95 10:12/M
17 MIKE MAURER TOWANDA PA 431 30 M 9 1-99 2:14:12.38 10:15/M
18 LIZ MAURER TOWANDA PA 430 28 F 3 1-99 2:14:12.48 10:15/M
19 KEVIN RUBERT TOWANDA PA 437 59 M 10 1-99 2:15:43.14 10:22/M
20 KELLY WATKINS GILLETT PA 447 38 F 4 1-99 2:17:21.24 10:29/M
21 ROSEMARY MACK BINGHAMTON NY 429 60 F 5 1-99 2:17:41.24 10:31/M
22 LISA MACK BINGHAMTON NY 428 60 F 6 1-99 2:17:41.37 10:31/M
23 RACHEL TRENT 448 37 F 7 1-99 2:20:54.75 10:45/M
24 KAREN CURRIER APALACHIN NY 398 44 F 8 1-99 2:25:16.69 11:05/M
25 JASON HENRY 456 39 M 11 1-99 2:25:17.10 11:05/M
26 KATHY LUTZ WYALUSING PA 426 53 F 9 1-99 2:27:17.76 11:15/M
27 ROSA CARLINI KIRKWOOD NY 396 27 F 10 1-99 2:27:43.71 11:17/M
28 CHRIS VAN DRUFF 451 45 M 12 1-99 2:30:30.25 11:29/M
29 JEFF HOLBROOK 452 56 M 13 1-99 2:30:31.24 11:29/M
30 DEB LYNCH ATHENS PA 427 46 F 11 1-99 2:32:52.31 11:40/M
31 ROBYN WALTER MONTROSE PA 446 40 F 12 1-99 2:33:52.25 11:45/M
32 JULIE DIAZ MONTROSE PA 399 40 F 13 1-99 2:34:17.53 11:47/M
33 PAM HERLAN LOWMAN NY 418 53 F 14 1-99 2:34:40.53 11:48/M
34 TERRI ALLEN TROY PA 394 44 F 15 1-99 2:41:18.48 12:19/M
35 SANDY MORRIS ROME PA 435 48 F 16 1-99 2:41:18.69 12:19/M
36 COLLEEN ENGLER 450 56 F 17 1-99 2:45:55.50 12:40/M
37 ASHLEY FREED NEW OXFORD PA 400 29 F 18 1-99 3:03:57.18 14:03/M
38 BARBIE SMITH VESTAL NY 441 34 F 19 1-99 3:07:25.88 14:18/M
39 LOUISE BREESE TOWANDA PA 395 46 F 20 1-99 3:47:39.18 17:23/M
40 DIANA HAVERLY TOWANDA PA 417 62 F 21 1-99 3:48:08.18 17:25/M